Terminal Aerodrome Forecast
Issued by NWS Duluth, MN

Home | Current Version | Previous Version | Text Only | Print | Product List | Glossary On
Versions: 1 2 3 4 5 6 7 8 9 10 11 12 13 14 15 16 17 18 19 20 21 22 23
490
FTUS43 KDLH 292321
TAFINL
TAF
KINL 292321Z 3000/3024 29010KT P6SM SCT040
     FM300300 25006KT P6SM SKC
     FM301400 27010KT P6SM SCT070=

USA.gov is the U.S. government's official web portal to all federal, state and local government web resources and services.